Decoded Metar for ESNQ (KIRUNA in SWEDEN) (IATA:KRN) | Meteo·Mobile Aviation Weather
aviador You're here:

ESNQ Decoded Metar

KIRUNA in SWEDEN
Report Time2019-06-19 00:50:00
UTC Time2019-06-19 01:20:26
Flight Rules vfr VFR
Wind300° at 05 kt
W.Decomp.*RWY 21: 0.6 kt HW 5.0 kt RCW
Visibility9999 m
Phenomena:N/A
Clouds:Overcast 043 Hf
Expected CloudBase > 1,200 ft AGL from Temp-Dew spread
Ceiling4,300 ft
Temp08°C (ISA -4)
Dew Point05°C (82% RH)
AAT5.1°C
QNH1006 hPa
Density Alt1,362 ft
Elevation1,483 ft
Report Wrong Elevation
Raw Report
METAR ESNQ 190050Z AUTO 30005KT 9999 OVC043/// 08/05 Q1006=

Extra information for ESNQ:More info

Metar Taf Metar & Taf Last 4 Metars F.Rules Stats Wind Profile Meteogram Temp Stats Airport Information Weather charts Add Link Nearby VenuesMetar ALERT Operation Metar Decoded Social comments